Etusivu
METAR-TAF:

METAR-TAF

Lentoasemat :

Utti, Suomi

Utin lentoasema

Leveyspiiri: 60-54N, Pituuspiiri: 026-56E, korkeus merenpinnasta: 100 m

Tämänhetkinen sää

Tämä raportti tehtiin 10 minuuttia sitten, kello 02.50 UTC
Tuuli 5 kn etelästä/kaakosta
Lämpötila 4°C
Kosteus 100%
Ilmanpaine 996 hPa
Näkyvyys: 7000 m
heikkoa sadetta

METAR: EFUT 250250Z AUTO 16005KT 7000 -RA VV002 04/04 Q0996

Aika: 06:00 (03:00 UTC)

Sääennuste

Tämä raportti tehtiin 22 minuuttia sitten, kello 02.38 UTC
Ennuste voimassa 25. päivästä klo 03 UTC - 25. päivään klo 12 UTC
Tuuli 5 kn etelästä
Näkyvyys 10 km tai enemmän
Pilvistä 200 ft:n korkeudessa
heikkoa tihkusadetta, sadetta
Ajoittain
25. päivästä klo 03 UTC - 25. päivään klo 09 UTC
Näkyvyys: 3000 m
utua

TAF: EFUT 250238Z 2503/2512 17005KT 9999 -DZRA OVC002 TEMPO 2503/2509 3000 BR

Säähavainnot ja -ennusteet yli 4000 lentoasemalta (METAR- ja TAF-raportit).

Käytössä olevat sääasemat on merkitty karttaan keltaisilla ja punaisilla pisteillä.

Aseta hiiri pisteen päälle nähdäksesi sääaseman nimen.

Klikkaa sitten nähdäksesi säähavainnot ja -ennusteet.

Kartan vaihtaminen: klikkaa mustalla rastilla varustettuja vihreitä pisteitä, niin voit zoomata sisään; viivalla varustettua vihreää pistettä, niin voit zoomata ulos tai vihreitä nuolia, niin pääset viereisille kartoille.


METAR-TAF: